METAR Data
IDs: Format: Raw Decoded Include TAF

Data at: 0239 UTC 20 Jan 2022

LFMN 200230Z 33009KT CAVOK 06/02 Q1020 NOSIG